Pearson, Wisconsin
Current Conditions -  °F | °C
As of 3:35 AM on Sunday 21 Dec 2014 (Local Time) from KAIG Reporting Station
Haze Haze  
Wind Chill: 18°   Ceiling: 300
Heat Index: 26°   Visibility: 1.7mi
Dew Point: 26°   Wind: 7mph
Humidity: 100%   Direction: 160°SSE
Pressure: 30.1"   Gusts: NA
Location:  45.36°N, 89.02°W
Report Text: KAIG 210935Z AUTO 16006KT 1 3/4SM BR OVC003 M04/M04 A3010 RMK AO2 T10361036
Loading
Personal Weather Stations






























Interactive Weather Map New forecast layout! Learn more

10-Day Weather Forecast

Advertisements
Track Severe Weather on mobile